GHB - Wetterstation

--- Lilienthal-Gleiter-Unterfranken e.V. --- (Impressum)
-> Windverlauf / Grafik
-> Barometerverlauf / Grafik
-> Wetter Links
-> WS GHB auf Windy



Bitte Uhrzeit beachten ob Daten aktuell sind!

Anzeige der letzten 100 Messwerte (~8 Stunden)
Datum Zeit Wind Richtung Richtung Böen Temperatur Feuchte Luftdruck
30.11.2021 01:26:53 10.45 km/h 241.1 ° W-SW 17.28 km/h -0.5 °C 77 % 1013.22 hPa
30.11.2021 01:22:11 8.66 km/h 234.4 ° SW 15.84 km/h -0.5 °C 77.5 % 1013.32 hPa
30.11.2021 01:17:30 13.62 km/h 242.4 ° W-SW 20.16 km/h -0.5 °C 77.5 % 1013.22 hPa
30.11.2021 01:12:48 9.98 km/h 228.3 ° SW 15.48 km/h -0.5 °C 77.5 % 1013.22 hPa
30.11.2021 01:08:07 7.49 km/h 238.8 ° W-SW 14.76 km/h -0.5 °C 77.5 % 1013.32 hPa
30.11.2021 01:03:25 12.71 km/h 247.4 ° W-SW 19.8 km/h -0.5 °C 77.5 % 1013.22 hPa
30.11.2021 00:58:44 8.72 km/h 242.2 ° W-SW 14.04 km/h -0.6 °C 77.5 % 1013.12 hPa
30.11.2021 00:54:02 8.55 km/h 232.9 ° SW 15.12 km/h -0.6 °C 76 % 1013.32 hPa
30.11.2021 00:49:20 10.88 km/h 246.6 ° W-SW 19.08 km/h -0.6 °C 77.5 % 1013.22 hPa
30.11.2021 00:44:39 7.53 km/h 240.5 ° W-SW 11.16 km/h -0.6 °C 77.5 % 1013.32 hPa
30.11.2021 00:39:57 6.97 km/h 255.4 ° W-SW 10.08 km/h -0.6 °C 77 % 1013.42 hPa
30.11.2021 00:35:15 8.72 km/h 242.6 ° W-SW 12.24 km/h -0.5 °C 77.5 % 1013.32 hPa
30.11.2021 00:30:33 9.99 km/h 254.4 ° W-SW 14.4 km/h -0.5 °C 77.5 % 1013.42 hPa
30.11.2021 00:25:52 10.29 km/h 245.5 ° W-SW 18 km/h -0.5 °C 77.5 % 1013.22 hPa
30.11.2021 00:21:10 10.02 km/h 246.2 ° W-SW 13.32 km/h -0.5 °C 77.5 % 1013.22 hPa
30.11.2021 00:16:29 8.74 km/h 249.1 ° W-SW 13.68 km/h -0.5 °C 77.5 % 1013.32 hPa
30.11.2021 00:11:47 8.57 km/h 246.6 ° W-SW 14.4 km/h -0.5 °C 77.5 % 1013.22 hPa
30.11.2021 00:07:06 9.01 km/h 232.7 ° SW 12.24 km/h -0.6 °C 77.5 % 1013.12 hPa
30.11.2021 00:02:24 8.43 km/h 250.8 ° W-SW 11.52 km/h -0.6 °C 77.5 % 1013.12 hPa
29.11.2021 23:57:43 7.1 km/h 234.6 ° SW 9.36 km/h -0.7 °C 77 % 1013.12 hPa
29.11.2021 23:53:01 7.28 km/h 222.6 ° SW 11.16 km/h -0.7 °C 78 % 1013.22 hPa
29.11.2021 23:43:44 8.21 km/h 223.9 ° SW 12.6 km/h -0.7 °C 77.5 % 1013.22 hPa
29.11.2021 23:39:02 5.33 km/h 242.8 ° W-SW 9 km/h -0.8 °C 77.5 % 1013.12 hPa
29.11.2021 23:34:20 7.74 km/h 240.5 ° W-SW 9.72 km/h -0.8 °C 77 % 1013.22 hPa
29.11.2021 23:29:38 8.12 km/h 258.4 ° W-SW 12.24 km/h -0.8 °C 77.5 % 1013.22 hPa
29.11.2021 23:24:57 8.55 km/h 255.4 ° W-SW 12.96 km/h -0.8 °C 77.5 % 1013.22 hPa
29.11.2021 23:20:15 8.96 km/h 251.8 ° W-SW 12.6 km/h -0.9 °C 77.5 % 1013.02 hPa
29.11.2021 23:15:34 6.48 km/h 242.4 ° W-SW 11.52 km/h -0.9 °C 77.5 % 1013.12 hPa
29.11.2021 23:10:52 3.85 km/h 245.8 ° W-SW 7.2 km/h -0.9 °C 76.5 % 1013.12 hPa
29.11.2021 23:01:24 7.86 km/h 256.1 ° W-SW 11.52 km/h -0.8 °C 77 % 1013.02 hPa
29.11.2021 22:56:42 8.77 km/h 267.4 ° W 12.24 km/h -0.8 °C 77.5 % 1013.12 hPa
29.11.2021 22:52:01 5.22 km/h 265.9 ° W 10.44 km/h -0.8 °C 77 % 1013.12 hPa
29.11.2021 22:47:19 5.49 km/h 264.7 ° W 11.52 km/h -0.7 °C 77.5 % 1012.92 hPa
29.11.2021 22:42:37 7.01 km/h 266.8 ° W 10.44 km/h -0.6 °C 77 % 1013.02 hPa
29.11.2021 22:37:55 10.25 km/h 264.1 ° W 12.6 km/h -0.6 °C 77.5 % 1013.12 hPa
29.11.2021 22:33:14 3.67 km/h 240.9 ° W-SW 6.84 km/h -0.6 °C 77.5 % 1013.12 hPa
29.11.2021 22:28:32 3.51 km/h 267.2 ° W 8.28 km/h -0.6 °C 77.5 % 1013.22 hPa
29.11.2021 22:23:50 7.06 km/h 257.5 ° W-SW 13.32 km/h -0.6 °C 77.5 % 1013.22 hPa
29.11.2021 22:19:08 3.43 km/h 261.1 ° W 6.12 km/h -0.6 °C 77 % 1013.02 hPa
29.11.2021 22:14:27 2.63 km/h 291.2 ° W-NW 5.4 km/h -0.6 °C 77 % 1012.92 hPa
29.11.2021 22:09:45 4.04 km/h 228.9 ° SW 8.64 km/h -0.6 °C 78 % 1013.02 hPa
29.11.2021 21:59:09 2.78 km/h 251.4 ° W-SW 5.04 km/h -0.7 °C 77 % 1012.82 hPa
29.11.2021 21:54:28 2.97 km/h 240.5 ° W-SW 7.2 km/h -0.7 °C 77.5 % 1012.72 hPa
29.11.2021 21:45:43 4.46 km/h 231.9 ° SW 9 km/h -0.7 °C 77.5 % 1012.72 hPa
29.11.2021 21:41:01 3.04 km/h 237.1 ° W-SW 7.2 km/h -0.8 °C 77.5 % 1012.62 hPa
29.11.2021 21:36:19 2.88 km/h 213.2 ° S-SW 4.32 km/h -0.8 °C 77 % 1012.62 hPa
29.11.2021 21:31:38 1.68 km/h 182 ° S 5.4 km/h -0.7 °C 76.5 % 1012.72 hPa
29.11.2021 21:26:56 7.3 km/h 226 ° SW 12.6 km/h -0.8 °C 77 % 1012.62 hPa
29.11.2021 21:22:14 4.55 km/h 213.2 ° S-SW 11.88 km/h -0.8 °C 77.5 % 1012.62 hPa
29.11.2021 21:17:33 4.89 km/h 208.5 ° S-SW 8.28 km/h -0.9 °C 77.5 % 1012.52 hPa
29.11.2021 21:12:51 6.26 km/h 212.3 ° S-SW 10.08 km/h -0.9 °C 77 % 1012.42 hPa
29.11.2021 21:08:09 3.88 km/h 186 ° S 6.48 km/h -0.9 °C 77.5 % 1012.42 hPa
29.11.2021 21:03:27 6.05 km/h 232.5 ° SW 7.56 km/h -0.9 °C 77.5 % 1012.42 hPa
29.11.2021 20:58:46 7.28 km/h 246.4 ° W-SW 10.8 km/h -0.9 °C 77.5 % 1012.32 hPa
29.11.2021 20:54:04 6.41 km/h 250.2 ° W-SW 9.72 km/h -1 °C 77.5 % 1012.22 hPa
29.11.2021 20:49:22 3.54 km/h 231.9 ° SW 7.2 km/h -1 °C 77 % 1012.22 hPa
29.11.2021 20:44:40 5.14 km/h 243.4 ° W-SW 9 km/h -1 °C 76.5 % 1012.12 hPa
29.11.2021 20:39:59 0.89 km/h 236.5 ° W-SW 3.24 km/h -1 °C 77.5 % 1012.12 hPa
29.11.2021 20:35:17 4.23 km/h 251.6 ° W-SW 7.56 km/h -1 °C 77.5 % 1012.22 hPa
29.11.2021 20:30:35 3.6 km/h 255.8 ° W-SW 6.48 km/h -1 °C 77.5 % 1012.12 hPa
29.11.2021 20:25:53 1.53 km/h 265.9 ° W 2.52 km/h -1 °C 77.5 % 1012.12 hPa
29.11.2021 20:21:11 3.01 km/h 259 ° W 7.92 km/h -1.1 °C 77.5 % 1012.22 hPa
29.11.2021 20:16:30 2.23 km/h 282.6 ° W-NW 5.04 km/h -1.1 °C 77.5 % 1012.12 hPa
29.11.2021 20:11:48 1.26 km/h 302.5 ° W-NW 5.76 km/h -1.1 °C 77.5 % 1012.12 hPa
29.11.2021 20:07:07 0.7 km/h 279.6 ° W 2.88 km/h -1.1 °C 77.5 % 1012.02 hPa
29.11.2021 20:02:25 2.33 km/h 282.6 ° W-NW 3.6 km/h -1.1 °C 77 % 1012.02 hPa
29.11.2021 19:57:44 1.5 km/h 297.5 ° W-NW 3.96 km/h -1.1 °C 77.5 % 1012.02 hPa
29.11.2021 19:53:02 2.14 km/h 282.1 ° W-NW 4.68 km/h -1.1 °C 77.5 % 1012.12 hPa
29.11.2021 19:48:20 3.89 km/h 293.3 ° W-NW 7.2 km/h -1.1 °C 77.5 % 1011.92 hPa
29.11.2021 19:43:39 1.67 km/h 305.5 ° NW 4.32 km/h -1.1 °C 77.5 % 1012.02 hPa
29.11.2021 19:38:57 2.5 km/h 294.1 ° W-NW 5.76 km/h -1.1 °C 77 % 1011.82 hPa
29.11.2021 19:34:15 2.05 km/h 302.3 ° W-NW 5.4 km/h -1.1 °C 77 % 1011.82 hPa
29.11.2021 19:29:33 3.04 km/h 300.4 ° W-NW 4.68 km/h -1.1 °C 77.5 % 1011.82 hPa
29.11.2021 19:24:52 4.57 km/h 298.9 ° W-NW 6.84 km/h -1.1 °C 77 % 1011.82 hPa
29.11.2021 19:20:10 3.77 km/h 314.7 ° NW 7.2 km/h -1.1 °C 77 % 1011.62 hPa
29.11.2021 19:15:29 3.38 km/h 294.1 ° W-NW 5.76 km/h -1.1 °C 77 % 1011.52 hPa
29.11.2021 19:10:47 4.25 km/h 300.4 ° W-NW 8.28 km/h -1.1 °C 77 % 1011.52 hPa
29.11.2021 19:06:06 4.24 km/h 308 ° NW 8.64 km/h -1 °C 77 % 1011.52 hPa
29.11.2021 19:01:24 3.1 km/h 309.9 ° NW 5.4 km/h -1.1 °C 77.5 % 1011.42 hPa
29.11.2021 18:56:42 4.4 km/h 299.6 ° W-NW 6.48 km/h -1.1 °C 77 % 1011.22 hPa
29.11.2021 18:52:00 2.95 km/h 311.6 ° NW 5.4 km/h -1.1 °C 77.5 % 1011.22 hPa
29.11.2021 18:47:19 3.28 km/h 298.3 ° W-NW 7.56 km/h -1.1 °C 77 % 1011.12 hPa
29.11.2021 18:42:37 1.31 km/h 239.4 ° W-SW 3.6 km/h -1.1 °C 77 % 1011.12 hPa
29.11.2021 18:37:56 5.14 km/h 310.7 ° NW 9 km/h -1.1 °C 77 % 1011.22 hPa
29.11.2021 18:33:14 1.75 km/h 249.3 ° W-SW 9.36 km/h -1.1 °C 77 % 1011.02 hPa
29.11.2021 18:28:32 2.25 km/h 293.9 ° W-NW 4.68 km/h -1.1 °C 77.5 % 1011.12 hPa
29.11.2021 18:23:50 2.41 km/h 297.1 ° W-NW 5.04 km/h -1.1 °C 77 % 1011.02 hPa
29.11.2021 18:19:09 5.86 km/h 294.8 ° W-NW 11.52 km/h -1.1 °C 77 % 1010.92 hPa
29.11.2021 18:14:27 4.38 km/h 242.8 ° W-SW 6.84 km/h -1.1 °C 77.5 % 1010.92 hPa
29.11.2021 18:09:45 3.98 km/h 287.4 ° W-NW 7.2 km/h -1.1 °C 77 % 1010.92 hPa
29.11.2021 18:05:04 3.7 km/h 291.6 ° W-NW 7.56 km/h -1.1 °C 77 % 1010.72 hPa
29.11.2021 18:00:22 5.71 km/h 279.4 ° W 8.64 km/h -1.1 °C 77 % 1010.72 hPa
29.11.2021 17:55:41 6.09 km/h 278.8 ° W 10.8 km/h -1.1 °C 77 % 1010.62 hPa
29.11.2021 17:50:59 5.8 km/h 286.3 ° W-NW 9 km/h -1.1 °C 77 % 1010.52 hPa
29.11.2021 17:46:17 5.4 km/h 288.6 ° W-NW 9.72 km/h -1.1 °C 77 % 1010.42 hPa
29.11.2021 17:41:35 5.69 km/h 255.8 ° W-SW 9.36 km/h -1.1 °C 77 % 1010.32 hPa
29.11.2021 17:36:53 9.31 km/h 264.1 ° W 14.04 km/h -1.1 °C 77.5 % 1010.12 hPa
29.11.2021 17:32:12 8.17 km/h 273.1 ° W 12.6 km/h -1.2 °C 77 % 1010.22 hPa
29.11.2021 17:27:30 7.47 km/h 262.6 ° W 10.8 km/h -1.2 °C 77 % 1010.12 hPa
29.11.2021 17:22:49 7.64 km/h 277.7 ° W 10.8 km/h -1.2 °C 77 % 1010.02 hPa